createdAt,value
2022-10-25T00:00:15.577Z,77.61
2022-10-25T00:03:02.393Z,77.58
2022-10-25T00:05:29.308Z,77.58
2022-10-25T00:07:56.159Z,77.52
2022-10-25T00:10:25.597Z,77.52
2022-10-25T00:12:52.757Z,77.51
2022-10-25T00:15:19.712Z,77.55
2022-10-25T00:17:47.243Z,77.40
2022-10-25T00:20:14.370Z,77.58
2022-10-25T00:22:41.482Z,77.50
2022-10-25T00:25:09.287Z,77.66
2022-10-25T00:27:36.806Z,77.46
2022-10-25T00:30:05.990Z,77.38
2022-10-25T00:32:34.245Z,77.28
2022-10-25T00:35:01.178Z,77.37
2022-10-25T00:37:28.133Z,77.39
2022-10-25T00:39:54.993Z,77.31
2022-10-25T00:42:24.904Z,77.35
2022-10-25T00:45:03.799Z,77.31
2022-10-25T00:47:39.698Z,77.16
2022-10-25T00:50:22.244Z,77.20
2022-10-25T00:52:52.316Z,77.16
2022-10-25T00:55:24.320Z,77.35
2022-10-25T00:57:56.608Z,77.24
2022-10-25T01:00:23.614Z,77.16
2022-10-25T01:02:51.451Z,77.29
2022-10-25T01:05:19.377Z,77.09
2022-10-25T01:07:47.282Z,77.14
2022-10-25T01:10:15.278Z,77.33
2022-10-25T01:12:42.191Z,77.24
2022-10-25T01:15:09.816Z,77.24
2022-10-25T01:18:24.711Z,77.30
2022-10-25T01:21:10.664Z,77.23
2022-10-25T01:24:04.994Z,77.29
2022-10-25T01:26:50.151Z,77.28
2022-10-25T01:29:31.624Z,77.26
2022-10-25T01:32:10.827Z,77.16
2022-10-25T01:34:44.307Z,77.15
2022-10-25T01:37:16.237Z,77.09
2022-10-25T01:40:21.352Z,77.14
2022-10-25T01:42:50.887Z,77.17
2022-10-25T01:45:52.904Z,77.16
2022-10-25T01:48:26.222Z,77.04
2022-10-25T01:50:53.146Z,77.18
2022-10-25T01:53:20.128Z,77.18
2022-10-25T01:55:56.787Z,77.22
2022-10-25T01:58:59.889Z,77.27
2022-10-25T02:04:40.168Z,77.07
2022-10-25T02:07:25.392Z,77.13
2022-10-25T02:09:52.284Z,77.12
2022-10-25T02:12:29.526Z,77.26
2022-10-25T02:15:08.379Z,77.28
2022-10-25T02:17:42.224Z,77.20
2022-10-25T02:20:11.842Z,77.15
2022-10-25T02:22:39.154Z,77.16
2022-10-25T02:25:08.504Z,77.21
2022-10-25T02:27:38.530Z,77.21
2022-10-25T02:30:06.958Z,77.20
2022-10-25T02:32:34.092Z,77.28
2022-10-25T02:35:01.402Z,77.24
2022-10-25T02:37:28.405Z,77.24
2022-10-25T02:39:55.776Z,77.09
2022-10-25T02:42:22.674Z,77.20
2022-10-25T02:44:49.502Z,77.18
2022-10-25T02:47:16.328Z,77.08
2022-10-25T02:49:43.377Z,77.17
2022-10-25T02:52:10.273Z,77.14
2022-10-25T02:54:37.121Z,77.13
2022-10-25T02:57:04.027Z,77.09
2022-10-25T02:59:31.018Z,76.96
2022-10-25T03:01:57.910Z,77.00
2022-10-25T03:04:25.029Z,76.97
2022-10-25T03:06:51.964Z,76.79
2022-10-25T03:09:18.797Z,76.91
2022-10-25T03:11:45.626Z,76.93
2022-10-25T03:14:12.677Z,77.02
2022-10-25T03:16:39.523Z,76.93
2022-10-25T03:19:06.643Z,76.85
2022-10-25T03:21:34.341Z,76.82
2022-10-25T03:24:02.533Z,76.83
2022-10-25T03:26:29.533Z,76.87
2022-10-25T03:28:56.663Z,76.76
2022-10-25T03:31:24.634Z,76.87
2022-10-25T03:33:51.519Z,76.88
2022-10-25T03:36:18.459Z,76.92
2022-10-25T03:38:45.380Z,76.78
2022-10-25T03:41:12.410Z,76.79
2022-10-25T03:43:39.321Z,76.74
2022-10-25T03:46:06.150Z,76.77
2022-10-25T03:48:33.075Z,76.94
2022-10-25T03:51:00.139Z,76.76
2022-10-25T03:53:27.291Z,76.80
2022-10-25T03:55:54.119Z,76.83
2022-10-25T03:58:20.976Z,76.97
2022-10-25T04:00:47.866Z,76.89
2022-10-25T04:03:14.864Z,76.94
2022-10-25T04:05:41.688Z,77.01
2022-10-25T04:08:08.644Z,77.03
2022-10-25T04:10:35.551Z,76.96
2022-10-25T04:13:02.498Z,77.13
2022-10-25T04:15:29.776Z,77.08
2022-10-25T04:17:56.618Z,77.12
2022-10-25T04:20:23.509Z,77.13
2022-10-25T04:22:57.768Z,77.23
2022-10-25T04:25:26.502Z,77.29
2022-10-25T04:27:54.087Z,77.22
2022-10-25T04:30:20.950Z,77.31
2022-10-25T04:32:48.097Z,77.35
2022-10-25T04:35:15.374Z,77.17
2022-10-25T04:37:42.259Z,77.13
2022-10-25T04:40:09.994Z,77.23
2022-10-25T04:42:36.906Z,77.24
2022-10-25T04:45:04.044Z,77.20
2022-10-25T04:47:32.328Z,77.08
2022-10-25T04:49:59.303Z,77.29
2022-10-25T04:52:28.554Z,77.15
2022-10-25T04:54:55.811Z,77.06
2022-10-25T04:57:22.758Z,77.10
2022-10-25T04:59:50.136Z,77.14
2022-10-25T05:02:17.108Z,77.18
2022-10-25T05:04:43.941Z,77.16
2022-10-25T05:07:10.962Z,77.11
2022-10-25T05:09:38.455Z,77.14
2022-10-25T05:12:05.517Z,77.14
2022-10-25T05:14:32.412Z,77.02
2022-10-25T05:16:59.958Z,76.99
2022-10-25T05:19:26.918Z,76.98
2022-10-25T05:21:53.970Z,77.07
2022-10-25T05:24:20.914Z,76.99
2022-10-25T05:26:47.866Z,77.03
2022-10-25T05:29:14.734Z,76.99
2022-10-25T05:31:41.671Z,77.08
2022-10-25T05:34:10.267Z,76.98
2022-10-25T05:36:37.417Z,77.01
2022-10-25T05:39:04.631Z,77.01
2022-10-25T05:41:34.692Z,76.91
2022-10-25T05:44:05.490Z,76.95
2022-10-25T05:46:32.548Z,76.91
2022-10-25T05:49:00.042Z,76.84
2022-10-25T05:51:36.142Z,76.93
2022-10-25T05:54:10.298Z,77.03
2022-10-25T05:56:37.909Z,77.02
2022-10-25T05:59:08.295Z,77.04
2022-10-25T06:01:36.689Z,76.92
2022-10-25T06:04:03.890Z,76.85
2022-10-25T06:06:30.801Z,77.01
2022-10-25T06:08:59.399Z,77.04
2022-10-25T06:11:28.207Z,77.00
2022-10-25T06:13:55.414Z,76.94
2022-10-25T06:16:22.794Z,76.99
2022-10-25T06:18:50.068Z,77.07
2022-10-25T06:21:19.768Z,77.01
2022-10-25T06:23:47.536Z,77.01
2022-10-25T06:26:17.480Z,76.99
2022-10-25T06:28:44.203Z,76.94
2022-10-25T06:31:16.610Z,77.11
2022-10-25T06:33:44.138Z,76.94
2022-10-25T06:36:14.598Z,76.92
2022-10-25T06:38:42.509Z,77.00
2022-10-25T06:41:18.710Z,77.04
2022-10-25T06:43:45.735Z,77.15
2022-10-25T06:46:23.315Z,77.14
2022-10-25T06:48:52.113Z,77.22
2022-10-25T06:51:19.681Z,77.38
2022-10-25T06:53:47.016Z,77.37
2022-10-25T06:56:14.938Z,77.24
2022-10-25T06:58:42.222Z,77.29
2022-10-25T07:01:15.470Z,77.18
2022-10-25T07:03:43.249Z,77.34
2022-10-25T07:06:14.286Z,77.27
2022-10-25T07:08:43.778Z,77.31
2022-10-25T07:11:19.393Z,77.27
2022-10-25T07:13:46.703Z,77.24
2022-10-25T07:16:16.907Z,77.15
2022-10-25T07:18:44.524Z,77.11
2022-10-25T07:21:20.321Z,77.07
2022-10-25T07:23:48.878Z,77.07
2022-10-25T07:26:23.159Z,77.12
2022-10-25T07:28:52.176Z,77.12
2022-10-25T07:31:22.099Z,77.17
2022-10-25T07:33:51.125Z,77.15
2022-10-25T07:36:18.967Z,77.04
2022-10-25T07:38:46.367Z,77.07
2022-10-25T07:41:13.289Z,77.06
2022-10-25T07:43:40.545Z,76.98
2022-10-25T07:46:08.116Z,77.16
2022-10-25T07:48:35.011Z,76.93
2022-10-25T07:51:07.263Z,77.04
2022-10-25T07:53:34.132Z,77.13
2022-10-25T07:56:01.179Z,77.14
2022-10-25T07:58:28.124Z,77.21
2022-10-25T08:01:07.329Z,77.24
2022-10-25T08:03:34.449Z,77.23
2022-10-25T08:06:02.356Z,77.26
2022-10-25T08:08:30.367Z,77.23
2022-10-25T08:10:59.019Z,77.20
2022-10-25T08:13:25.977Z,77.29
2022-10-25T08:15:54.644Z,77.32
2022-10-25T08:18:23.238Z,77.41
2022-10-25T08:21:01.728Z,77.42
2022-10-25T08:23:30.820Z,77.42
2022-10-25T08:25:57.656Z,77.49
2022-10-25T08:28:24.475Z,77.56
2022-10-25T08:30:53.537Z,77.56
2022-10-25T08:33:20.489Z,77.52
2022-10-25T08:35:47.483Z,77.67
2022-10-25T08:38:14.323Z,77.59
2022-10-25T08:40:46.739Z,77.72
2022-10-25T08:43:34.473Z,77.74
2022-10-25T08:46:10.324Z,77.73
2022-10-25T08:48:44.226Z,77.83
2022-10-25T08:51:26.284Z,77.74
2022-10-25T08:53:57.165Z,77.85
2022-10-25T08:56:25.321Z,77.92
2022-10-25T08:58:59.724Z,77.84
2022-10-25T09:01:31.669Z,77.53
2022-10-25T09:03:59.417Z,77.56
2022-10-25T09:06:41.012Z,77.69
2022-10-25T09:09:29.737Z,77.65
2022-10-25T09:12:23.032Z,77.64
2022-10-25T09:15:04.600Z,77.56
2022-10-25T09:17:41.747Z,77.59
2022-10-25T09:20:20.707Z,77.58
2022-10-25T09:22:50.983Z,77.57
2022-10-25T09:25:26.900Z,77.55
2022-10-25T09:28:07.879Z,77.57
2022-10-25T09:30:43.262Z,77.81
2022-10-25T09:33:12.839Z,77.73
2022-10-25T09:35:46.658Z,77.68
2022-10-25T09:38:42.124Z,77.74
2022-10-25T09:41:18.134Z,77.62
2022-10-25T09:44:25.355Z,77.65
2022-10-25T09:47:14.336Z,77.51
2022-10-25T09:50:05.862Z,77.62
2022-10-25T09:52:46.136Z,77.65
2022-10-25T09:55:25.038Z,77.73
2022-10-25T09:57:51.993Z,77.68
2022-10-25T10:00:19.045Z,77.61
2022-10-25T10:02:46.081Z,77.62
2022-10-25T10:05:19.515Z,77.54
2022-10-25T10:07:48.871Z,77.51
2022-10-25T10:10:22.009Z,77.43
2022-10-25T10:13:17.220Z,77.34
2022-10-25T10:16:04.171Z,77.46
2022-10-25T10:18:33.338Z,77.45
2022-10-25T10:21:26.657Z,77.55
2022-10-25T10:24:00.985Z,77.57
2022-10-25T10:26:36.680Z,77.48
2022-10-25T10:29:25.620Z,77.52
2022-10-25T10:31:55.726Z,77.50
2022-10-25T10:34:34.141Z,77.64
2022-10-25T10:37:06.348Z,77.81
2022-10-25T10:39:33.991Z,77.71
2022-10-25T10:42:15.230Z,77.70
2022-10-25T10:45:03.504Z,77.63
2022-10-25T10:47:41.300Z,77.61
2022-10-25T10:50:20.068Z,77.62
2022-10-25T10:52:58.185Z,77.52
2022-10-25T10:55:35.091Z,77.46
2022-10-25T10:58:16.123Z,77.58
2022-10-25T11:00:52.107Z,77.41
2022-10-25T11:03:48.651Z,77.35
2022-10-25T11:06:30.318Z,77.41
2022-10-25T11:09:22.407Z,77.33
2022-10-25T11:12:13.885Z,77.28
2022-10-25T11:14:41.057Z,77.17
2022-10-25T11:17:31.791Z,77.37
2022-10-25T11:20:32.705Z,77.37
2022-10-25T11:23:23.073Z,77.29
2022-10-25T11:25:57.738Z,77.28
2022-10-25T11:28:39.757Z,77.33
2022-10-25T11:31:09.299Z,77.21
2022-10-25T11:33:58.248Z,77.36
2022-10-25T11:36:34.256Z,77.25
2022-10-25T11:39:04.227Z,77.24
2022-10-25T11:41:56.435Z,77.33
2022-10-25T11:44:26.290Z,77.25
2022-10-25T11:47:16.482Z,77.37
2022-10-25T11:50:10.661Z,77.21
2022-10-25T11:53:14.613Z,77.26
2022-10-25T11:55:49.843Z,77.12
2022-10-25T11:58:28.447Z,77.17
2022-10-25T12:01:14.425Z,77.31
2022-10-25T12:03:56.247Z,77.07
2022-10-25T12:06:23.158Z,77.25
2022-10-25T12:09:01.414Z,77.05
2022-10-25T12:11:37.143Z,77.26
2022-10-25T12:14:09.045Z,77.09
2022-10-25T12:16:37.400Z,77.11
2022-10-25T12:19:24.044Z,76.88
2022-10-25T12:22:05.515Z,76.99
2022-10-25T12:24:46.344Z,76.91
2022-10-25T12:27:17.817Z,77.03
2022-10-25T12:29:50.537Z,77.11
2022-10-25T12:32:22.945Z,76.97
2022-10-25T12:34:53.088Z,77.01
2022-10-25T12:37:36.996Z,76.99
2022-10-25T12:40:05.864Z,76.92
2022-10-25T12:42:49.471Z,76.93
2022-10-25T12:45:57.547Z,76.89
2022-10-25T12:48:34.041Z,76.77
2022-10-25T12:51:33.652Z,76.76
2022-10-25T12:54:19.071Z,76.64
2022-10-25T12:57:13.792Z,76.70
2022-10-25T13:00:09.012Z,76.55
2022-10-25T13:02:51.173Z,76.77
2022-10-25T13:05:44.171Z,76.89
2022-10-25T13:08:13.049Z,76.83
2022-10-25T13:10:43.781Z,76.63
2022-10-25T13:13:29.481Z,76.64
2022-10-25T13:16:02.871Z,76.72
2022-10-25T13:18:45.052Z,76.76
2022-10-25T13:21:36.197Z,76.63
2022-10-25T13:24:03.261Z,76.59
2022-10-25T13:26:32.602Z,76.54
2022-10-25T13:29:02.989Z,76.62
2022-10-25T13:31:36.055Z,76.52
2022-10-25T13:34:11.991Z,76.38
2022-10-25T13:36:53.325Z,76.48
2022-10-25T13:39:42.295Z,76.40
2022-10-25T13:42:15.219Z,76.49
2022-10-25T13:45:07.137Z,76.37
2022-10-25T13:47:46.764Z,76.41
2022-10-25T13:50:27.572Z,76.53
2022-10-25T13:53:19.773Z,76.59
2022-10-25T13:55:57.640Z,76.10
2022-10-25T13:58:32.083Z,76.06
2022-10-25T14:01:14.499Z,76.01
2022-10-25T14:04:18.857Z,75.61
2022-10-25T14:06:46.444Z,75.70
2022-10-25T14:09:18.930Z,75.87
2022-10-25T14:11:53.928Z,75.58
2022-10-25T14:14:29.534Z,75.47
2022-10-25T14:17:08.219Z,75.49
2022-10-25T14:19:37.616Z,75.52
2022-10-25T14:22:14.354Z,75.52
2022-10-25T14:24:43.355Z,75.57
2022-10-25T14:27:32.745Z,75.68
2022-10-25T14:30:22.846Z,75.60
2022-10-25T14:32:52.011Z,75.59
2022-10-25T14:35:20.444Z,75.53
2022-10-25T14:37:47.566Z,75.53
2022-10-25T14:40:20.711Z,75.51
2022-10-25T14:42:47.835Z,75.48
2022-10-25T14:45:26.563Z,75.44
2022-10-25T14:47:53.501Z,75.53
2022-10-25T14:50:25.903Z,75.52
2022-10-25T14:52:56.812Z,75.52
2022-10-25T14:55:32.219Z,75.36
2022-10-25T14:58:02.995Z,75.46
2022-10-25T15:00:30.467Z,75.40
2022-10-25T15:03:03.997Z,75.45
2022-10-25T15:05:31.694Z,75.54
2022-10-25T15:07:59.819Z,75.49
2022-10-25T15:10:40.534Z,75.35
2022-10-25T15:13:21.053Z,75.33
2022-10-25T15:15:50.475Z,75.32
2022-10-25T15:18:21.146Z,75.41
2022-10-25T15:21:14.804Z,75.39
2022-10-25T15:23:44.282Z,75.41
2022-10-25T15:26:29.230Z,75.39
2022-10-25T15:28:59.504Z,75.33
2022-10-25T15:31:28.906Z,75.38
2022-10-25T15:33:58.434Z,75.42
2022-10-25T15:36:27.879Z,75.42
2022-10-25T15:39:08.265Z,75.40
2022-10-25T15:41:37.829Z,75.49
2022-10-25T15:44:04.787Z,75.52
2022-10-25T15:46:33.599Z,75.26
2022-10-25T15:49:06.137Z,75.38
2022-10-25T15:51:36.174Z,75.46
2022-10-25T15:54:03.230Z,75.52
2022-10-25T15:56:30.246Z,75.47
2022-10-25T15:59:02.232Z,75.49
2022-10-25T16:01:29.459Z,75.53
2022-10-25T16:03:56.433Z,75.52
2022-10-25T16:06:24.137Z,75.60
2022-10-25T16:08:51.059Z,75.41
2022-10-25T16:11:20.545Z,75.62
2022-10-25T16:13:51.191Z,75.63
2022-10-25T16:16:41.778Z,75.64
2022-10-25T16:19:17.139Z,75.89
2022-10-25T16:21:44.578Z,75.90
2022-10-25T16:24:11.907Z,75.80
2022-10-25T16:26:45.793Z,75.91
2022-10-25T16:29:17.786Z,75.81
2022-10-25T16:31:44.957Z,75.88
2022-10-25T16:34:12.166Z,75.92
2022-10-25T16:36:39.083Z,75.97
2022-10-25T16:39:07.146Z,75.92
2022-10-25T16:41:38.039Z,76.17
2022-10-25T16:44:05.261Z,76.08
2022-10-25T16:46:32.140Z,75.86
2022-10-25T16:49:01.827Z,76.03
2022-10-25T16:51:29.318Z,76.06
2022-10-25T16:53:57.888Z,75.97
2022-10-25T16:56:24.806Z,75.99
2022-10-25T16:58:51.770Z,76.05
2022-10-25T17:01:20.189Z,76.15
2022-10-25T17:03:51.155Z,76.17
2022-10-25T17:06:40.106Z,76.14
2022-10-25T17:09:06.604Z,76.25
2022-10-25T17:11:33.522Z,76.09
2022-10-25T17:14:00.443Z,76.15
2022-10-25T17:16:27.580Z,76.14
2022-10-25T17:18:54.524Z,76.19
2022-10-25T17:21:21.624Z,76.24
2022-10-25T17:23:48.772Z,76.21
2022-10-25T17:26:15.725Z,76.25
2022-10-25T17:33:23.024Z,76.30
2022-10-25T17:35:49.984Z,76.31
2022-10-25T17:38:17.185Z,76.21
2022-10-25T17:40:46.841Z,76.36
2022-10-25T17:43:21.498Z,76.44
2022-10-25T17:45:58.338Z,76.23
2022-10-25T17:48:57.250Z,76.25
2022-10-25T17:55:10.040Z,76.17
2022-10-25T17:57:38.082Z,76.27
2022-10-25T18:00:08.233Z,76.29
2022-10-25T18:02:40.988Z,76.23
2022-10-25T18:05:20.307Z,76.21
2022-10-25T18:07:48.530Z,76.42
2022-10-25T18:10:22.863Z,76.40
2022-10-25T18:12:59.065Z,76.41
2022-10-25T18:15:26.053Z,76.34
2022-10-25T18:17:53.032Z,76.31
2022-10-25T18:20:22.211Z,76.24
2022-10-25T18:22:53.681Z,76.32
2022-10-25T18:25:53.832Z,76.43
2022-10-25T18:28:22.464Z,76.26
2022-10-25T18:30:49.388Z,76.29
2022-10-25T18:33:18.176Z,76.40
2022-10-25T18:35:45.122Z,76.39
2022-10-25T18:38:15.772Z,76.41
2022-10-25T18:40:44.927Z,76.34
2022-10-25T18:43:12.326Z,76.33
2022-10-25T18:45:47.712Z,76.37
2022-10-25T18:48:14.928Z,76.27
2022-10-25T18:50:42.593Z,76.43
2022-10-25T18:53:09.942Z,76.44
2022-10-25T18:56:00.302Z,76.30
2022-10-25T18:58:36.585Z,76.38
2022-10-25T19:01:22.416Z,76.31
2022-10-25T19:03:58.923Z,76.31
2022-10-25T19:06:48.625Z,76.42
2022-10-25T19:13:24.788Z,76.42
2022-10-25T19:15:57.587Z,76.42
2022-10-25T19:18:31.849Z,76.40
2022-10-25T19:21:04.961Z,76.52
2022-10-25T19:23:33.378Z,76.53
2022-10-25T19:26:08.405Z,76.65
2022-10-25T19:29:11.010Z,76.57
2022-10-25T19:31:41.926Z,76.62
2022-10-25T19:34:09.048Z,76.45
2022-10-25T19:36:36.147Z,76.49
2022-10-25T19:39:09.580Z,76.54
2022-10-25T19:41:36.876Z,76.57
2022-10-25T19:44:04.055Z,76.62
2022-10-25T19:46:35.393Z,76.64
2022-10-25T19:49:02.709Z,76.67
2022-10-25T19:51:29.837Z,76.61
2022-10-25T19:53:56.898Z,76.65
2022-10-25T19:56:23.999Z,76.60
2022-10-25T19:58:51.610Z,76.80
2022-10-25T20:01:20.477Z,76.88
2022-10-25T20:03:50.928Z,76.78
2022-10-25T20:06:24.689Z,76.84
2022-10-25T20:08:53.919Z,76.90
2022-10-25T20:11:24.879Z,76.87
2022-10-25T20:13:56.680Z,76.78
2022-10-25T20:16:28.526Z,76.95
2022-10-25T20:18:56.348Z,76.87
2022-10-25T20:21:26.087Z,76.83
2022-10-25T20:23:59.110Z,76.82
2022-10-25T20:26:31.478Z,76.72
2022-10-25T20:29:03.760Z,76.83
2022-10-25T20:31:33.334Z,76.84
2022-10-25T20:34:10.051Z,76.90
2022-10-25T20:36:38.148Z,76.82
2022-10-25T20:39:05.118Z,76.85
2022-10-25T20:41:34.187Z,76.82
2022-10-25T20:44:05.347Z,76.81
2022-10-25T20:46:33.606Z,76.68
2022-10-25T20:49:01.538Z,76.81
2022-10-25T20:51:28.663Z,76.81
2022-10-25T20:53:56.440Z,76.78
2022-10-25T20:56:23.843Z,76.83
2022-10-25T20:58:51.287Z,76.77
2022-10-25T21:01:18.336Z,76.74
2022-10-25T21:03:45.380Z,76.85
2022-10-25T21:06:13.754Z,76.79
2022-10-25T21:08:40.859Z,76.78
2022-10-25T21:11:11.544Z,76.71
2022-10-25T21:13:39.500Z,76.71
2022-10-25T21:16:12.115Z,76.66
2022-10-25T21:18:42.473Z,76.76
2022-10-25T21:21:20.098Z,76.77
2022-10-25T21:23:48.514Z,76.77
2022-10-25T21:26:15.791Z,76.82
2022-10-25T21:28:43.563Z,76.78
2022-10-25T21:31:12.598Z,76.80
2022-10-25T21:33:41.415Z,76.73
2022-10-25T21:36:11.317Z,76.81
2022-10-25T21:38:39.395Z,76.71
2022-10-25T21:41:08.963Z,76.89
2022-10-25T21:43:37.214Z,76.82
2022-10-25T21:46:09.937Z,76.78
2022-10-25T21:48:37.033Z,76.81
2022-10-25T21:51:04.778Z,76.63
2022-10-25T21:53:31.993Z,76.67
2022-10-25T21:56:18.773Z,76.50
2022-10-25T21:58:48.471Z,76.65
2022-10-25T22:01:21.367Z,76.49
2022-10-25T22:03:49.777Z,76.52
2022-10-25T22:06:21.472Z,76.48
2022-10-25T22:08:49.206Z,76.47
2022-10-25T22:11:18.933Z,76.36
2022-10-25T22:13:47.418Z,76.38
2022-10-25T22:16:17.704Z,76.39
2022-10-25T22:18:50.341Z,76.35
2022-10-25T22:21:17.754Z,76.38
2022-10-25T22:23:44.661Z,76.42
2022-10-25T22:26:15.178Z,76.45
2022-10-25T22:28:42.050Z,76.37
2022-10-25T22:31:17.033Z,76.42
2022-10-25T22:33:46.270Z,76.48
2022-10-25T22:36:16.311Z,76.35
2022-10-25T22:38:44.252Z,76.37
2022-10-25T22:41:16.989Z,76.42
2022-10-25T22:43:44.904Z,76.29
2022-10-25T22:46:26.357Z,76.23
2022-10-25T22:48:54.948Z,76.17
2022-10-25T22:51:23.297Z,76.23
2022-10-25T22:53:52.927Z,76.22
2022-10-25T22:56:28.401Z,76.17
2022-10-25T22:58:59.283Z,76.09
2022-10-25T23:01:32.935Z,75.99
2022-10-25T23:04:00.729Z,75.91
2022-10-25T23:06:33.496Z,75.80
2022-10-25T23:09:05.769Z,75.76
2022-10-25T23:11:34.451Z,75.84
2022-10-25T23:14:02.089Z,75.80
2022-10-25T23:16:29.567Z,75.82
2022-10-25T23:18:56.941Z,75.80
2022-10-25T23:21:26.250Z,75.77
2022-10-25T23:23:55.570Z,75.75
2022-10-25T23:26:29.111Z,75.81
2022-10-25T23:28:56.341Z,75.85
2022-10-25T23:31:28.240Z,75.84
2022-10-25T23:33:57.144Z,75.68
2022-10-25T23:36:29.925Z,75.65
2022-10-25T23:38:58.181Z,75.52
2022-10-25T23:41:25.273Z,75.50
2022-10-25T23:43:52.337Z,75.61
2022-10-25T23:46:19.498Z,75.78
2022-10-25T23:48:46.404Z,75.71
2022-10-25T23:51:16.315Z,75.69
2022-10-25T23:53:45.046Z,75.75
2022-10-25T23:56:13.155Z,75.69
2022-10-25T23:58:40.117Z,75.64
